Herald, Illinois
Current Conditions -  °F | °C
As of 3:35 PM on Friday 28 Nov 2014 (Local Time) from KCUL Reporting Station
Clear Clear  
Wind Chill: 39°   Ceiling: Unl
Heat Index: 46°   Visibility: 10mi
Dew Point: 34°   Wind: 16mph
Humidity: 63%   Direction: 170°S
Pressure: 30.09"   Gusts: 20mph
Location:  37.97°N, 88.18°W
Report Text: KCUL 282135Z AUTO 17014G17KT 10SM CLR 08/01 A3009 RMK AO2 T00750009
Loading
Personal Weather Stations






























Interactive Weather Map New forecast layout! Learn more

10-Day Weather Forecast

Advertisements
Track Severe Weather on mobile